createdAt,value
2022-10-28T00:01:21.825Z,80.03
2022-10-28T00:03:53.506Z,80.00
2022-10-28T00:06:23.219Z,80.09
2022-10-28T00:08:50.764Z,79.97
2022-10-28T00:11:20.755Z,80.81
2022-10-28T00:13:48.551Z,79.95
2022-10-28T00:16:18.960Z,79.70
2022-10-28T00:18:46.841Z,81.34
2022-10-28T00:21:20.369Z,81.42
2022-10-28T00:23:49.668Z,81.29
2022-10-28T00:26:22.832Z,80.81
2022-10-28T00:28:58.596Z,80.26
2022-10-28T00:31:27.767Z,80.77
2022-10-28T00:33:55.620Z,80.03
2022-10-28T00:36:28.894Z,80.61
2022-10-28T00:38:57.020Z,80.27
2022-10-28T00:41:29.922Z,80.30
2022-10-28T00:44:00.035Z,81.03
2022-10-28T00:46:49.377Z,80.35
2022-10-28T00:49:25.563Z,80.94
2022-10-28T00:51:56.454Z,80.55
2022-10-28T00:54:23.825Z,81.04
2022-10-28T00:56:55.484Z,80.34
2022-10-28T00:59:33.086Z,79.42
2022-10-28T01:02:00.944Z,80.98
2022-10-28T01:04:28.633Z,81.94
2022-10-28T01:07:18.854Z,81.29
2022-10-28T01:09:46.239Z,80.90
2022-10-28T01:12:13.204Z,80.32
2022-10-28T01:15:17.672Z,80.00
2022-10-28T01:18:04.911Z,80.29
2022-10-28T01:20:50.786Z,79.76
2022-10-28T01:23:26.893Z,80.08
2022-10-28T01:26:08.979Z,79.92
2022-10-28T01:29:00.346Z,79.45
2022-10-28T01:31:43.351Z,79.42
2022-10-28T01:34:21.419Z,79.99
2022-10-28T01:37:11.482Z,79.20
2022-10-28T01:39:47.539Z,79.10
2022-10-28T01:42:32.356Z,80.21
2022-10-28T01:45:17.784Z,80.04
2022-10-28T01:47:51.194Z,79.87
2022-10-28T01:50:41.152Z,80.20
2022-10-28T01:53:14.116Z,79.69
2022-10-28T01:55:45.840Z,80.77
2022-10-28T01:58:17.802Z,80.96
2022-10-28T02:00:46.569Z,80.37
2022-10-28T02:03:13.770Z,80.11
2022-10-28T02:05:43.520Z,79.90
2022-10-28T02:08:38.170Z,80.14
2022-10-28T02:11:21.390Z,79.80
2022-10-28T02:14:11.566Z,81.00
2022-10-28T02:16:48.328Z,81.34
2022-10-28T02:19:48.608Z,80.91
2022-10-28T02:22:30.953Z,80.92
2022-10-28T02:25:17.595Z,80.23
2022-10-28T02:28:08.066Z,81.23
2022-10-28T02:30:40.712Z,80.85
2022-10-28T02:33:12.375Z,80.81
2022-10-28T02:35:45.699Z,79.95
2022-10-28T02:38:25.137Z,80.06
2022-10-28T02:40:56.646Z,80.19
2022-10-28T02:43:26.199Z,79.62
2022-10-28T02:45:57.874Z,79.72
2022-10-28T02:48:33.720Z,79.39
2022-10-28T02:51:11.468Z,80.16
2022-10-28T02:54:03.170Z,80.81
2022-10-28T02:56:34.836Z,81.64
2022-10-28T02:59:01.855Z,82.18
2022-10-28T03:01:29.076Z,82.42
2022-10-28T03:03:56.174Z,83.27
2022-10-28T03:06:23.263Z,83.76
2022-10-28T03:08:50.401Z,83.81
2022-10-28T03:11:19.398Z,82.64
2022-10-28T03:13:46.464Z,83.34
2022-10-28T03:16:13.673Z,82.80
2022-10-28T03:18:40.747Z,82.13
2022-10-28T03:21:07.840Z,82.23
2022-10-28T03:23:34.938Z,82.30
2022-10-28T03:26:01.971Z,82.32
2022-10-28T03:28:29.034Z,82.94
2022-10-28T03:30:56.047Z,82.76
2022-10-28T03:33:23.108Z,82.49
2022-10-28T03:35:50.303Z,82.49
2022-10-28T03:38:17.341Z,83.25
2022-10-28T03:40:44.370Z,82.89
2022-10-28T03:43:11.403Z,82.49
2022-10-28T03:45:38.432Z,83.46
2022-10-28T03:48:05.595Z,83.77
2022-10-28T03:50:32.710Z,83.91
2022-10-28T03:52:59.811Z,83.86
2022-10-28T03:55:27.654Z,83.78
2022-10-28T03:57:55.140Z,84.51
2022-10-28T04:00:22.490Z,85.01
2022-10-28T04:02:51.612Z,84.25
2022-10-28T04:05:20.051Z,84.83
2022-10-28T04:07:47.501Z,84.43
2022-10-28T04:10:14.685Z,84.26
2022-10-28T04:12:41.739Z,84.25
2022-10-28T04:15:09.129Z,84.62
2022-10-28T04:17:36.270Z,85.03
2022-10-28T04:20:03.759Z,84.44
2022-10-28T04:22:30.901Z,83.96
2022-10-28T04:24:57.959Z,84.81
2022-10-28T04:27:25.017Z,84.69
2022-10-28T04:29:52.121Z,85.12
2022-10-28T04:32:19.196Z,85.00
2022-10-28T04:34:46.252Z,85.75
2022-10-28T04:37:15.913Z,85.47
2022-10-28T04:39:45.378Z,85.58
2022-10-28T04:42:12.437Z,85.28
2022-10-28T04:44:39.525Z,84.65
2022-10-28T04:47:06.606Z,84.78
2022-10-28T04:49:36.661Z,84.95
2022-10-28T04:52:06.376Z,84.76
2022-10-28T04:54:33.436Z,85.20
2022-10-28T04:57:00.497Z,84.96
2022-10-28T04:59:27.617Z,85.23
2022-10-28T05:01:54.825Z,85.24
2022-10-28T05:04:24.405Z,84.74
2022-10-28T05:06:51.578Z,84.81
2022-10-28T05:09:18.629Z,84.73
2022-10-28T05:11:45.725Z,84.44
2022-10-28T05:14:12.795Z,84.45
2022-10-28T05:16:39.863Z,84.66
2022-10-28T05:19:07.069Z,84.28
2022-10-28T05:21:34.141Z,84.57
2022-10-28T05:24:01.633Z,84.83
2022-10-28T05:26:28.746Z,84.48
2022-10-28T05:28:55.758Z,84.81
2022-10-28T05:31:22.893Z,84.10
2022-10-28T05:33:49.903Z,84.22
2022-10-28T05:36:16.988Z,84.15
2022-10-28T05:38:45.590Z,83.78
2022-10-28T05:41:12.779Z,83.55
2022-10-28T05:43:39.819Z,83.53
2022-10-28T05:46:06.931Z,83.44
2022-10-28T05:48:34.249Z,83.08
2022-10-28T05:51:01.392Z,83.52
2022-10-28T05:53:28.454Z,82.52
2022-10-28T05:55:55.504Z,83.46
2022-10-28T05:58:22.552Z,83.37
2022-10-28T06:00:49.656Z,83.17
2022-10-28T06:03:16.783Z,83.33
2022-10-28T06:05:45.397Z,84.26
2022-10-28T06:08:13.708Z,84.61
2022-10-28T06:10:42.386Z,84.67
2022-10-28T06:13:08.197Z,83.76
2022-10-28T06:15:35.244Z,83.77
2022-10-28T06:18:03.136Z,83.04
2022-10-28T06:20:31.934Z,83.63
2022-10-28T06:22:59.010Z,84.14
2022-10-28T06:25:26.431Z,84.48
2022-10-28T06:28:01.134Z,83.88
2022-10-28T06:30:28.439Z,82.83
2022-10-28T06:32:56.378Z,82.75
2022-10-28T06:35:23.477Z,83.01
2022-10-28T06:37:55.477Z,83.27
2022-10-28T06:40:24.566Z,83.51
2022-10-28T06:42:59.722Z,83.89
2022-10-28T06:45:28.177Z,83.15
2022-10-28T06:48:03.257Z,82.16
2022-10-28T06:50:30.822Z,82.67
2022-10-28T06:52:59.137Z,82.87
2022-10-28T06:55:27.075Z,82.56
2022-10-28T06:57:55.973Z,81.94
2022-10-28T07:00:23.417Z,82.20
2022-10-28T07:02:52.519Z,82.05
2022-10-28T07:05:20.579Z,82.68
2022-10-28T07:07:47.643Z,83.07
2022-10-28T07:10:14.852Z,82.56
2022-10-28T07:12:41.896Z,82.74
2022-10-28T07:15:09.944Z,82.87
2022-10-28T07:17:37.211Z,82.85
2022-10-28T07:20:04.563Z,84.26
2022-10-28T07:22:31.632Z,83.55
2022-10-28T07:24:58.790Z,82.75
2022-10-28T07:27:25.893Z,82.39
2022-10-28T07:29:52.937Z,82.44
2022-10-28T07:32:20.012Z,81.36
2022-10-28T07:34:47.160Z,81.06
2022-10-28T07:37:14.246Z,82.15
2022-10-28T07:39:41.310Z,82.50
2022-10-28T07:42:08.345Z,81.99
2022-10-28T07:44:35.389Z,83.08
2022-10-28T07:47:02.548Z,83.46
2022-10-28T07:49:29.638Z,83.97
2022-10-28T07:51:56.850Z,83.56
2022-10-28T07:54:23.924Z,84.35
2022-10-28T07:56:50.987Z,85.17
2022-10-28T07:59:25.771Z,85.48
2022-10-28T08:01:54.637Z,85.79
2022-10-28T08:04:21.871Z,85.92
2022-10-28T08:06:48.928Z,85.62
2022-10-28T08:09:17.088Z,86.69
2022-10-28T08:11:44.144Z,85.58
2022-10-28T08:14:11.401Z,85.24
2022-10-28T08:16:38.537Z,84.25
2022-10-28T08:19:07.863Z,83.91
2022-10-28T08:21:35.099Z,83.51
2022-10-28T08:24:02.193Z,81.17
2022-10-28T08:26:29.244Z,81.89
2022-10-28T08:28:56.524Z,82.67
2022-10-28T08:31:23.608Z,82.00
2022-10-28T08:33:50.625Z,82.30
2022-10-28T08:36:17.654Z,82.27
2022-10-28T08:38:47.616Z,81.93
2022-10-28T08:41:17.425Z,81.92
2022-10-28T08:43:57.746Z,82.37
2022-10-28T08:46:41.030Z,82.49
2022-10-28T08:49:12.780Z,81.94
2022-10-28T08:52:03.857Z,82.27
2022-10-28T08:54:36.465Z,81.28
2022-10-28T08:57:08.446Z,80.80
2022-10-28T08:59:39.264Z,80.74
2022-10-28T09:02:25.211Z,80.76
2022-10-28T09:05:05.239Z,79.47
2022-10-28T09:07:37.103Z,80.43
2022-10-28T09:10:05.987Z,78.89
2022-10-28T09:12:39.003Z,81.32
2022-10-28T09:15:43.174Z,80.17
2022-10-28T09:19:05.691Z,77.94
2022-10-28T09:21:40.740Z,77.30
2022-10-28T09:24:19.072Z,77.25
2022-10-28T09:27:09.435Z,76.22
2022-10-28T09:29:43.275Z,76.11
2022-10-28T09:32:23.627Z,76.51
2022-10-28T09:35:00.061Z,77.61
2022-10-28T09:37:37.318Z,77.52
2022-10-28T09:40:24.856Z,76.11
2022-10-28T09:43:18.651Z,77.16
2022-10-28T09:45:49.091Z,77.17
2022-10-28T09:48:37.993Z,76.97
2022-10-28T09:51:05.237Z,76.60
2022-10-28T09:53:51.666Z,76.84
2022-10-28T09:56:18.814Z,75.82
2022-10-28T09:58:47.448Z,76.77
2022-10-28T10:01:17.105Z,75.64
2022-10-28T10:03:45.710Z,75.45
2022-10-28T10:06:18.327Z,74.99
2022-10-28T10:08:46.039Z,75.41
2022-10-28T10:11:26.554Z,75.04
2022-10-28T10:13:55.496Z,75.27
2022-10-28T10:16:31.622Z,74.67
2022-10-28T10:19:02.012Z,73.98
2022-10-28T10:21:46.833Z,74.21
2022-10-28T10:24:31.453Z,74.95
2022-10-28T10:27:12.592Z,76.16
2022-10-28T10:29:45.912Z,75.59
2022-10-28T10:32:25.020Z,76.05
2022-10-28T10:35:06.787Z,76.56
2022-10-28T10:37:36.288Z,77.28
2022-10-28T10:40:05.956Z,77.02
2022-10-28T10:42:39.216Z,78.60
2022-10-28T10:45:16.482Z,78.74
2022-10-28T10:47:43.614Z,77.68
2022-10-28T10:50:28.728Z,79.17
2022-10-28T10:52:59.279Z,77.71
2022-10-28T10:55:41.902Z,77.04
2022-10-28T10:58:18.367Z,77.06
2022-10-28T11:00:49.367Z,77.77
2022-10-28T11:03:41.937Z,77.24
2022-10-28T11:06:24.822Z,78.02
2022-10-28T11:08:58.502Z,78.56
2022-10-28T11:11:39.859Z,78.59
2022-10-28T11:14:22.855Z,78.78
2022-10-28T11:17:01.121Z,78.29
2022-10-28T11:19:29.799Z,78.09
2022-10-28T11:22:05.769Z,78.47
2022-10-28T11:25:12.761Z,78.09
2022-10-28T11:27:58.737Z,77.60
2022-10-28T11:30:45.706Z,78.86
2022-10-28T11:33:35.013Z,78.79
2022-10-28T11:36:35.096Z,78.10
2022-10-28T11:39:28.175Z,77.92
2022-10-28T11:41:57.755Z,77.11
2022-10-28T11:44:43.186Z,77.08
2022-10-28T11:47:50.435Z,76.34
2022-10-28T11:50:17.433Z,76.82
2022-10-28T11:53:05.895Z,77.11
2022-10-28T11:55:38.566Z,77.00
2022-10-28T11:58:26.642Z,77.56
2022-10-28T12:01:12.441Z,77.68
2022-10-28T12:04:03.813Z,78.05
2022-10-28T12:06:56.002Z,77.06
2022-10-28T12:09:23.092Z,77.33
2022-10-28T12:12:11.467Z,77.72
2022-10-28T12:14:51.544Z,77.08
2022-10-28T12:17:44.845Z,75.79
2022-10-28T12:20:18.711Z,75.97
2022-10-28T12:22:49.448Z,77.63
2022-10-28T12:25:19.453Z,76.92
2022-10-28T12:27:50.476Z,76.63
2022-10-28T12:30:33.409Z,76.54
2022-10-28T12:33:11.465Z,76.42
2022-10-28T12:35:45.083Z,75.52
2022-10-28T12:38:30.268Z,75.75
2022-10-28T12:40:57.304Z,75.04
2022-10-28T12:43:34.591Z,75.57
2022-10-28T12:46:02.457Z,75.72
2022-10-28T12:48:41.711Z,75.94
2022-10-28T12:51:23.939Z,75.24
2022-10-28T12:54:21.990Z,75.66
2022-10-28T12:57:04.638Z,75.75
2022-10-28T12:59:39.077Z,76.45
2022-10-28T13:02:17.605Z,76.48
2022-10-28T13:04:45.044Z,76.90
2022-10-28T13:07:27.070Z,76.24
2022-10-28T13:09:56.964Z,76.37
2022-10-28T13:12:48.536Z,76.37
2022-10-28T13:15:35.003Z,76.13
2022-10-28T13:18:23.803Z,76.45
2022-10-28T13:21:11.706Z,77.16
2022-10-28T13:23:48.998Z,76.25
2022-10-28T13:26:25.421Z,76.21
2022-10-28T13:28:56.125Z,76.65
2022-10-28T13:31:23.541Z,77.38
2022-10-28T13:34:00.352Z,76.43
2022-10-28T13:36:36.347Z,77.42
2022-10-28T13:39:07.455Z,77.39
2022-10-28T13:41:44.757Z,77.26
2022-10-28T13:44:25.608Z,78.14
2022-10-28T13:47:03.822Z,77.93
2022-10-28T13:49:33.921Z,77.99
2022-10-28T13:52:06.801Z,78.97
2022-10-28T13:54:58.977Z,78.87
2022-10-28T13:57:32.455Z,78.47
2022-10-28T14:00:23.542Z,78.64
2022-10-28T14:03:17.307Z,77.92
2022-10-28T14:05:44.450Z,78.13
2022-10-28T14:08:25.110Z,77.52
2022-10-28T14:11:05.780Z,77.50
2022-10-28T14:13:40.072Z,77.83
2022-10-28T14:16:32.516Z,78.05
2022-10-28T14:19:04.324Z,78.10
2022-10-28T14:21:56.516Z,78.33
2022-10-28T14:24:45.536Z,78.45
2022-10-28T14:27:15.901Z,78.10
2022-10-28T14:29:45.010Z,78.00
2022-10-28T14:32:30.822Z,78.49
2022-10-28T14:35:27.063Z,78.73
2022-10-28T14:38:51.127Z,79.19
2022-10-28T14:41:18.258Z,78.74
2022-10-28T14:43:52.837Z,79.93
2022-10-28T14:46:47.256Z,79.91
2022-10-28T14:49:19.353Z,79.79
2022-10-28T14:51:47.410Z,80.26
2022-10-28T14:54:24.707Z,79.88
2022-10-28T14:56:56.572Z,79.87
2022-10-28T14:59:43.231Z,80.36
2022-10-28T15:02:18.523Z,81.24
2022-10-28T15:04:47.838Z,81.69
2022-10-28T15:07:20.647Z,82.28
2022-10-28T15:09:54.077Z,82.75
2022-10-28T15:12:26.057Z,83.90
2022-10-28T15:14:55.990Z,82.95
2022-10-28T15:17:25.905Z,83.30
2022-10-28T15:19:55.902Z,83.78
2022-10-28T15:22:32.263Z,83.94
2022-10-28T15:25:10.998Z,85.01
2022-10-28T15:27:41.502Z,84.47
2022-10-28T15:30:20.852Z,85.46
2022-10-28T15:32:47.934Z,86.04
2022-10-28T15:35:27.621Z,86.62
2022-10-28T15:37:55.334Z,86.80
2022-10-28T15:40:29.526Z,86.88
2022-10-28T15:43:05.434Z,87.17
2022-10-28T15:45:39.684Z,87.62
2022-10-28T15:48:29.631Z,87.04
2022-10-28T15:51:17.337Z,88.12
2022-10-28T15:53:46.015Z,88.08
2022-10-28T15:56:16.154Z,89.14
2022-10-28T15:59:21.250Z,89.16
2022-10-28T16:01:48.695Z,88.98
2022-10-28T16:04:20.156Z,89.13
2022-10-28T16:06:47.752Z,89.05
2022-10-28T16:09:21.261Z,88.90
2022-10-28T16:11:51.584Z,89.25
2022-10-28T16:14:31.159Z,89.04
2022-10-28T16:17:17.867Z,89.83
2022-10-28T16:19:54.006Z,90.66
2022-10-28T16:22:23.683Z,90.79
2022-10-28T16:24:52.297Z,91.68
2022-10-28T16:27:21.837Z,91.39
2022-10-28T16:29:50.097Z,91.54
2022-10-28T16:32:21.326Z,91.13
2022-10-28T16:34:48.468Z,90.87
2022-10-28T16:37:29.982Z,90.59
2022-10-28T16:40:00.237Z,90.20
2022-10-28T16:42:27.720Z,90.22
2022-10-28T16:44:55.072Z,90.22
2022-10-28T16:47:35.507Z,90.30
2022-10-28T16:50:02.778Z,90.75
2022-10-28T16:52:30.366Z,89.62
2022-10-28T16:54:58.060Z,89.39
2022-10-28T16:57:26.191Z,89.76
2022-10-28T16:59:54.053Z,89.53
2022-10-28T17:02:35.393Z,90.13
2022-10-28T17:05:07.513Z,90.16
2022-10-28T17:07:34.583Z,90.47
2022-10-28T17:10:01.609Z,90.21
2022-10-28T17:12:30.646Z,90.09
2022-10-28T17:14:57.719Z,89.50
2022-10-28T17:17:24.827Z,89.03
2022-10-28T17:19:51.901Z,89.68
2022-10-28T17:22:18.948Z,89.34
2022-10-28T17:24:46.410Z,88.85
2022-10-28T17:27:14.531Z,89.48
2022-10-28T17:29:41.675Z,89.45
2022-10-28T17:32:08.912Z,88.30
2022-10-28T17:34:37.120Z,88.69
2022-10-28T17:37:04.922Z,88.52
2022-10-28T17:39:32.023Z,88.33
2022-10-28T17:41:59.508Z,88.62
2022-10-28T17:44:26.672Z,88.59
2022-10-28T17:46:53.769Z,88.10
2022-10-28T17:49:20.943Z,88.53
2022-10-28T17:51:47.973Z,88.56
2022-10-28T17:54:15.140Z,88.30
2022-10-28T17:56:42.504Z,87.80
2022-10-28T17:59:09.665Z,88.12
2022-10-28T18:01:37.001Z,88.57
2022-10-28T18:04:05.515Z,88.43
2022-10-28T18:06:32.672Z,88.18
2022-10-28T18:08:59.818Z,88.97
2022-10-28T18:11:27.619Z,89.75
2022-10-28T18:13:56.401Z,89.49
2022-10-28T18:16:27.877Z,89.69
2022-10-28T18:18:55.907Z,89.66
2022-10-28T18:21:24.722Z,89.61
2022-10-28T18:23:53.361Z,89.47
2022-10-28T18:26:21.125Z,89.50
2022-10-28T18:28:49.243Z,89.96
2022-10-28T18:31:18.645Z,90.14
2022-10-28T18:33:46.674Z,90.76
2022-10-28T18:36:19.635Z,90.38
2022-10-28T18:38:46.785Z,90.81
2022-10-28T18:41:21.959Z,90.82
2022-10-28T18:43:53.972Z,91.17
2022-10-28T18:46:21.660Z,91.81
2022-10-28T18:48:49.367Z,91.71
2022-10-28T18:51:16.483Z,91.77
2022-10-28T18:53:46.163Z,91.91
2022-10-28T18:56:16.456Z,92.45
2022-10-28T18:58:44.068Z,91.81
2022-10-28T19:01:12.551Z,92.60
2022-10-28T19:03:40.577Z,92.61
2022-10-28T19:06:13.508Z,92.70
2022-10-28T19:08:40.921Z,92.42
2022-10-28T19:11:09.560Z,93.76
2022-10-28T19:13:38.789Z,93.08
2022-10-28T19:16:06.818Z,93.29
2022-10-28T19:18:35.665Z,93.76
2022-10-28T19:21:08.441Z,93.40
2022-10-28T19:23:35.557Z,93.39
2022-10-28T19:26:04.696Z,93.14
2022-10-28T19:28:38.492Z,92.69
2022-10-28T19:31:09.079Z,92.15
2022-10-28T19:33:38.396Z,91.67
2022-10-28T19:36:11.180Z,91.48
2022-10-28T19:38:38.585Z,91.02
2022-10-28T19:41:12.574Z,91.76
2022-10-28T19:43:41.232Z,91.07
2022-10-28T19:46:14.452Z,91.48
2022-10-28T19:48:43.448Z,91.37
2022-10-28T19:51:14.530Z,91.05
2022-10-28T19:54:07.561Z,92.13
2022-10-28T19:56:35.254Z,90.93
2022-10-28T19:59:04.015Z,91.35
2022-10-28T20:01:33.755Z,91.59
2022-10-28T20:04:01.208Z,92.81
2022-10-28T20:06:34.498Z,93.23
2022-10-28T20:09:03.947Z,93.03
2022-10-28T20:11:33.424Z,91.93
2022-10-28T20:14:04.853Z,92.13
2022-10-28T20:16:33.115Z,92.43
2022-10-28T20:19:00.488Z,92.09
2022-10-28T20:21:33.493Z,92.15
2022-10-28T20:24:01.128Z,91.97
2022-10-28T20:26:30.818Z,92.04
2022-10-28T20:28:58.931Z,92.64
2022-10-28T20:31:29.488Z,93.21
2022-10-28T20:34:03.558Z,92.42
2022-10-28T20:36:38.952Z,92.97
2022-10-28T20:39:17.623Z,93.50
2022-10-28T20:41:47.111Z,93.08
2022-10-28T20:44:16.491Z,94.40
2022-10-28T20:46:48.022Z,94.97
2022-10-28T20:49:15.512Z,95.50
2022-10-28T20:51:42.820Z,95.92
2022-10-28T20:54:10.012Z,96.39
2022-10-28T20:56:40.764Z,96.41
2022-10-28T20:59:08.234Z,96.28
2022-10-28T21:01:38.133Z,95.91
2022-10-28T21:04:07.969Z,95.86
2022-10-28T21:06:36.574Z,96.18
2022-10-28T21:09:05.321Z,95.62
2022-10-28T21:11:35.605Z,95.17
2022-10-28T21:14:02.815Z,94.52
2022-10-28T21:16:30.525Z,94.46
2022-10-28T21:18:59.364Z,94.93
2022-10-28T21:21:27.335Z,94.47
2022-10-28T21:23:54.542Z,95.19
2022-10-28T21:26:21.913Z,95.19
2022-10-28T21:28:52.342Z,94.32
2022-10-28T21:31:20.835Z,94.25
2022-10-28T21:36:21.771Z,94.15
2022-10-28T21:38:52.472Z,94.84
2022-10-28T21:41:20.854Z,94.98
2022-10-28T21:43:49.805Z,95.29
2022-10-28T21:46:21.785Z,94.24
2022-10-28T21:48:49.105Z,94.50
2022-10-28T21:51:17.736Z,94.18
2022-10-28T21:53:45.545Z,93.60
2022-10-28T21:56:19.325Z,93.91
2022-10-28T21:58:48.946Z,93.17
2022-10-28T22:01:23.977Z,93.31
2022-10-28T22:03:54.653Z,93.13
2022-10-28T22:06:22.611Z,93.00
2022-10-28T22:08:49.695Z,93.69
2022-10-28T22:11:18.864Z,93.52
2022-10-28T22:13:47.165Z,93.18
2022-10-28T22:16:16.613Z,95.06
2022-10-28T22:18:44.518Z,94.47
2022-10-28T22:21:14.773Z,94.35
2022-10-28T22:23:42.677Z,94.43
2022-10-28T22:26:12.453Z,95.15
2022-10-28T22:28:39.888Z,97.08
2022-10-28T22:31:09.613Z,97.25
2022-10-28T22:33:37.192Z,96.48
2022-10-28T22:36:09.736Z,95.61
2022-10-28T22:38:37.232Z,95.64
2022-10-28T22:41:05.877Z,96.67
2022-10-28T22:43:33.583Z,96.92
2022-10-28T22:46:01.582Z,97.37
2022-10-28T22:48:29.230Z,97.49
2022-10-28T22:50:57.184Z,96.63
2022-10-28T22:53:26.729Z,96.92
2022-10-28T22:55:54.640Z,97.05
2022-10-28T22:58:23.437Z,96.66
2022-10-28T23:00:51.021Z,96.53
2022-10-28T23:03:18.766Z,95.97
2022-10-28T23:05:45.797Z,95.50
2022-10-28T23:08:15.852Z,95.92
2022-10-28T23:10:43.041Z,95.68
2022-10-28T23:13:13.627Z,95.62
2022-10-28T23:15:40.652Z,95.86
2022-10-28T23:18:07.759Z,95.85
2022-10-28T23:20:35.834Z,96.05
2022-10-28T23:23:03.205Z,96.81
2022-10-28T23:25:30.272Z,96.68
2022-10-28T23:27:57.589Z,97.19
2022-10-28T23:30:25.045Z,97.49
2022-10-28T23:32:52.081Z,97.74
2022-10-28T23:35:19.099Z,97.54
2022-10-28T23:37:46.149Z,97.46
2022-10-28T23:40:13.242Z,98.41
2022-10-28T23:42:40.546Z,97.68
2022-10-28T23:45:09.554Z,97.49
2022-10-28T23:47:36.706Z,97.85
2022-10-28T23:50:04.188Z,98.02
2022-10-28T23:52:31.306Z,97.35
2022-10-28T23:54:58.392Z,97.82
2022-10-28T23:57:25.468Z,98.47
2022-10-28T23:59:53.674Z,98.60
